sensor_id;sensor_type;location;lat;lon;timestamp;temperature;humidity
27559;DHT22;15002;52.028;5.670;2023-04-03T00:02:07;5.90;99.90
27559;DHT22;15002;52.028;5.670;2023-04-03T00:04:32;5.90;99.90
27559;DHT22;15002;52.028;5.670;2023-04-03T00:06:58;5.80;99.90
27559;DHT22;15002;52.028;5.670;2023-04-03T00:09:24;5.80;99.90
27559;DHT22;15002;52.028;5.670;2023-04-03T00:11:49;5.80;99.90
27559;DHT22;15002;52.028;5.670;2023-04-03T00:14:15;5.50;99.90
27559;DHT22;15002;52.028;5.670;2023-04-03T00:16:41;5.50;99.90
27559;DHT22;15002;52.028;5.670;2023-04-03T00:19:06;5.70;99.90
27559;DHT22;15002;52.028;5.670;2023-04-03T00:21:32;5.70;99.90
27559;DHT22;15002;52.028;5.670;2023-04-03T00:23:58;5.30;99.90
27559;DHT22;15002;52.028;5.670;2023-04-03T00:26:23;5.40;99.90
27559;DHT22;15002;52.028;5.670;2023-04-03T00:28:49;5.40;99.90
27559;DHT22;15002;52.028;5.670;2023-04-03T00:31:15;5.70;99.90
27559;DHT22;15002;52.028;5.670;2023-04-03T00:33:41;5.60;99.90
27559;DHT22;15002;52.028;5.670;2023-04-03T00:36:09;5.80;99.90
27559;DHT22;15002;52.028;5.670;2023-04-03T00:38:35;5.70;99.90
27559;DHT22;15002;52.028;5.670;2023-04-03T00:41:01;5.90;99.90
27559;DHT22;15002;52.028;5.670;2023-04-03T00:43:27;6.10;99.90
27559;DHT22;15002;52.028;5.670;2023-04-03T00:45:56;6.20;99.90
27559;DHT22;15002;52.028;5.670;2023-04-03T00:48:29;6.00;99.90
27559;DHT22;15002;52.028;5.670;2023-04-03T00:50:56;6.00;99.90
27559;DHT22;15002;52.028;5.670;2023-04-03T00:53:26;5.70;99.90
27559;DHT22;15002;52.028;5.670;2023-04-03T00:55:54;5.60;99.90
27559;DHT22;15002;52.028;5.670;2023-04-03T00:58:24;5.50;99.90
27559;DHT22;15002;52.028;5.670;2023-04-03T01:00:55;5.60;99.90
27559;DHT22;15002;52.028;5.670;2023-04-03T01:03:23;6.00;99.90
27559;DHT22;15002;52.028;5.670;2023-04-03T01:05:49;5.70;99.90
27559;DHT22;15002;52.028;5.670;2023-04-03T01:08:15;5.70;99.90
27559;DHT22;15002;52.028;5.670;2023-04-03T01:10:41;5.40;99.90
27559;DHT22;15002;52.028;5.670;2023-04-03T01:15:49;5.70;99.90
27559;DHT22;15002;52.028;5.670;2023-04-03T01:18:15;5.50;99.90
27559;DHT22;15002;52.028;5.670;2023-04-03T01:20:58;5.30;99.90
27559;DHT22;15002;52.028;5.670;2023-04-03T01:25:56;6.00;99.90
27559;DHT22;15002;52.028;5.670;2023-04-03T01:28:23;5.60;99.90
27559;DHT22;15002;52.028;5.670;2023-04-03T01:33:45;5.60;99.90
27559;DHT22;15002;52.028;5.670;2023-04-03T01:36:20;5.60;99.90
27559;DHT22;15002;52.028;5.670;2023-04-03T01:38:46;5.40;99.90
27559;DHT22;15002;52.028;5.670;2023-04-03T01:41:12;5.60;99.90
27559;DHT22;15002;52.028;5.670;2023-04-03T01:43:37;5.80;99.90
27559;DHT22;15002;52.028;5.670;2023-04-03T01:46:03;5.70;99.90
27559;DHT22;15002;52.028;5.670;2023-04-03T01:48:29;5.70;99.90
27559;DHT22;15002;52.028;5.670;2023-04-03T01:50:54;5.60;99.90
27559;DHT22;15002;52.028;5.670;2023-04-03T01:53:21;5.90;99.90
27559;DHT22;15002;52.028;5.670;2023-04-03T01:55:48;5.50;99.90
27559;DHT22;15002;52.028;5.670;2023-04-03T01:58:13;5.60;99.90
27559;DHT22;15002;52.028;5.670;2023-04-03T02:00:39;5.70;99.90
27559;DHT22;15002;52.028;5.670;2023-04-03T02:03:05;5.70;99.90
27559;DHT22;15002;52.028;5.670;2023-04-03T02:05:32;5.60;99.90
27559;DHT22;15002;52.028;5.670;2023-04-03T02:07:58;5.40;99.90
27559;DHT22;15002;52.028;5.670;2023-04-03T02:10:24;5.60;99.90
27559;DHT22;15002;52.028;5.670;2023-04-03T02:12:49;5.30;99.90
27559;DHT22;15002;52.028;5.670;2023-04-03T02:15:16;5.50;99.90
27559;DHT22;15002;52.028;5.670;2023-04-03T02:17:41;5.30;99.90
27559;DHT22;15002;52.028;5.670;2023-04-03T02:20:08;5.50;99.90
27559;DHT22;15002;52.028;5.670;2023-04-03T02:22:34;5.50;99.90
27559;DHT22;15002;52.028;5.670;2023-04-03T02:24:59;5.40;99.90
27559;DHT22;15002;52.028;5.670;2023-04-03T02:27:26;5.20;99.90
27559;DHT22;15002;52.028;5.670;2023-04-03T02:29:52;5.00;99.90
27559;DHT22;15002;52.028;5.670;2023-04-03T02:32:17;5.40;99.90
27559;DHT22;15002;52.028;5.670;2023-04-03T02:34:43;5.50;99.90
27559;DHT22;15002;52.028;5.670;2023-04-03T02:37:09;5.20;99.90
27559;DHT22;15002;52.028;5.670;2023-04-03T02:39:34;5.40;99.90
27559;DHT22;15002;52.028;5.670;2023-04-03T02:42:00;5.40;99.90
27559;DHT22;15002;52.028;5.670;2023-04-03T02:44:26;5.50;99.90
27559;DHT22;15002;52.028;5.670;2023-04-03T02:46:52;5.20;99.90
27559;DHT22;15002;52.028;5.670;2023-04-03T02:49:17;5.30;99.90
27559;DHT22;15002;52.028;5.670;2023-04-03T02:51:43;4.90;99.90
27559;DHT22;15002;52.028;5.670;2023-04-03T02:54:09;5.10;99.90
27559;DHT22;15002;52.028;5.670;2023-04-03T02:56:34;5.10;99.90
27559;DHT22;15002;52.028;5.670;2023-04-03T02:59:00;5.00;99.90
27559;DHT22;15002;52.028;5.670;2023-04-03T03:01:26;5.20;99.90
27559;DHT22;15002;52.028;5.670;2023-04-03T03:03:56;5.30;99.90
27559;DHT22;15002;52.028;5.670;2023-04-03T03:06:22;5.20;99.90
27559;DHT22;15002;52.028;5.670;2023-04-03T03:08:48;5.20;99.90
27559;DHT22;15002;52.028;5.670;2023-04-03T03:11:13;5.10;99.90
27559;DHT22;15002;52.028;5.670;2023-04-03T03:13:39;5.20;99.90
27559;DHT22;15002;52.028;5.670;2023-04-03T03:16:06;5.20;99.90
27559;DHT22;15002;52.028;5.670;2023-04-03T03:18:32;4.80;99.90
27559;DHT22;15002;52.028;5.670;2023-04-03T03:20:59;4.50;99.90
27559;DHT22;15002;52.028;5.670;2023-04-03T03:23:26;4.70;99.90
27559;DHT22;15002;52.028;5.670;2023-04-03T03:25:56;4.80;99.90
27559;DHT22;15002;52.028;5.670;2023-04-03T03:28:23;4.80;99.90
27559;DHT22;15002;52.028;5.670;2023-04-03T03:30:48;5.00;99.90
27559;DHT22;15002;52.028;5.670;2023-04-03T03:33:14;5.20;99.90
27559;DHT22;15002;52.028;5.670;2023-04-03T03:35:41;5.10;99.90
27559;DHT22;15002;52.028;5.670;2023-04-03T03:38:07;4.90;99.90
27559;DHT22;15002;52.028;5.670;2023-04-03T03:40:32;4.80;99.90
27559;DHT22;15002;52.028;5.670;2023-04-03T03:42:58;5.10;99.90
27559;DHT22;15002;52.028;5.670;2023-04-03T03:45:23;4.80;99.90
27559;DHT22;15002;52.028;5.670;2023-04-03T03:47:50;4.90;99.90
27559;DHT22;15002;52.028;5.670;2023-04-03T03:50:15;4.80;99.90
27559;DHT22;15002;52.028;5.670;2023-04-03T03:52:41;4.70;99.90
27559;DHT22;15002;52.028;5.670;2023-04-03T03:55:07;4.60;99.90
27559;DHT22;15002;52.028;5.670;2023-04-03T03:57:33;4.60;99.90
27559;DHT22;15002;52.028;5.670;2023-04-03T03:59:58;4.80;99.90
27559;DHT22;15002;52.028;5.670;2023-04-03T04:02:24;4.90;99.90
27559;DHT22;15002;52.028;5.670;2023-04-03T04:04:50;5.00;99.90
27559;DHT22;15002;52.028;5.670;2023-04-03T04:07:16;5.20;99.90
27559;DHT22;15002;52.028;5.670;2023-04-03T04:09:41;5.20;99.90
27559;DHT22;15002;52.028;5.670;2023-04-03T04:12:07;5.20;99.90
27559;DHT22;15002;52.028;5.670;2023-04-03T04:14:32;5.20;99.90
27559;DHT22;15002;52.028;5.670;2023-04-03T04:16:58;5.00;99.90
27559;DHT22;15002;52.028;5.670;2023-04-03T04:19:24;5.10;99.90
27559;DHT22;15002;52.028;5.670;2023-04-03T04:21:49;5.20;99.90
27559;DHT22;15002;52.028;5.670;2023-04-03T04:24:15;5.20;99.90
27559;DHT22;15002;52.028;5.670;2023-04-03T04:26:41;4.70;99.90
27559;DHT22;15002;52.028;5.670;2023-04-03T04:29:09;4.70;99.90
27559;DHT22;15002;52.028;5.670;2023-04-03T04:31:35;4.40;99.90
27559;DHT22;15002;52.028;5.670;2023-04-03T04:34:01;4.50;99.90
27559;DHT22;15002;52.028;5.670;2023-04-03T04:36:27;4.40;99.90
27559;DHT22;15002;52.028;5.670;2023-04-03T04:38:52;4.80;99.90
27559;DHT22;15002;52.028;5.670;2023-04-03T04:41:20;4.80;99.90
27559;DHT22;15002;52.028;5.670;2023-04-03T04:43:51;4.60;99.90
27559;DHT22;15002;52.028;5.670;2023-04-03T04:46:17;4.60;99.90
27559;DHT22;15002;52.028;5.670;2023-04-03T04:48:43;4.60;99.90
27559;DHT22;15002;52.028;5.670;2023-04-03T04:51:09;4.50;99.90
27559;DHT22;15002;52.028;5.670;2023-04-03T04:53:35;4.20;99.90
27559;DHT22;15002;52.028;5.670;2023-04-03T04:56:01;4.00;99.90
27559;DHT22;15002;52.028;5.670;2023-04-03T04:58:26;3.80;99.90
27559;DHT22;15002;52.028;5.670;2023-04-03T05:01:05;4.10;99.90
27559;DHT22;15002;52.028;5.670;2023-04-03T05:03:31;4.50;99.90
27559;DHT22;15002;52.028;5.670;2023-04-03T05:05:57;4.30;99.90
27559;DHT22;15002;52.028;5.670;2023-04-03T05:08:23;4.20;99.90
27559;DHT22;15002;52.028;5.670;2023-04-03T05:10:49;3.90;99.90
27559;DHT22;15002;52.028;5.670;2023-04-03T05:13:15;4.00;99.90
27559;DHT22;15002;52.028;5.670;2023-04-03T05:15:41;4.30;99.90
27559;DHT22;15002;52.028;5.670;2023-04-03T05:18:06;3.90;99.90
27559;DHT22;15002;52.028;5.670;2023-04-03T05:20:33;4.00;99.90
27559;DHT22;15002;52.028;5.670;2023-04-03T05:22:59;3.90;99.90
27559;DHT22;15002;52.028;5.670;2023-04-03T05:25:24;4.40;99.90
27559;DHT22;15002;52.028;5.670;2023-04-03T05:27:50;4.20;99.90
27559;DHT22;15002;52.028;5.670;2023-04-03T05:30:16;4.20;99.90
27559;DHT22;15002;52.028;5.670;2023-04-03T05:32:42;4.10;99.90
27559;DHT22;15002;52.028;5.670;2023-04-03T05:35:08;4.20;99.90
27559;DHT22;15002;52.028;5.670;2023-04-03T05:37:34;4.30;99.90
27559;DHT22;15002;52.028;5.670;2023-04-03T05:40:00;4.40;99.90
27559;DHT22;15002;52.028;5.670;2023-04-03T05:42:26;4.50;99.90
27559;DHT22;15002;52.028;5.670;2023-04-03T05:44:52;4.20;99.90
27559;DHT22;15002;52.028;5.670;2023-04-03T05:47:18;4.20;99.90
27559;DHT22;15002;52.028;5.670;2023-04-03T05:49:44;3.80;99.90
27559;DHT22;15002;52.028;5.670;2023-04-03T05:52:35;3.90;99.90
27559;DHT22;15002;52.028;5.670;2023-04-03T05:55:01;4.20;99.90
27559;DHT22;15002;52.028;5.670;2023-04-03T05:57:26;4.40;99.90
27559;DHT22;15002;52.028;5.670;2023-04-03T05:59:52;4.50;99.90
27559;DHT22;15002;52.028;5.670;2023-04-03T06:02:22;4.80;99.90
27559;DHT22;15002;52.028;5.670;2023-04-03T06:04:48;4.80;99.90
27559;DHT22;15002;52.028;5.670;2023-04-03T06:07:16;5.30;99.90
27559;DHT22;15002;52.028;5.670;2023-04-03T06:09:42;5.30;99.90
27559;DHT22;15002;52.028;5.670;2023-04-03T06:12:09;5.80;99.90
27559;DHT22;15002;52.028;5.670;2023-04-03T06:14:35;6.10;99.90
27559;DHT22;15002;52.028;5.670;2023-04-03T06:17:01;5.90;99.90
27559;DHT22;15002;52.028;5.670;2023-04-03T06:19:27;6.10;99.90
27559;DHT22;15002;52.028;5.670;2023-04-03T06:21:53;6.30;99.90
27559;DHT22;15002;52.028;5.670;2023-04-03T06:24:19;6.20;99.90
27559;DHT22;15002;52.028;5.670;2023-04-03T06:26:47;6.80;99.90
27559;DHT22;15002;52.028;5.670;2023-04-03T06:29:12;7.60;99.90
27559;DHT22;15002;52.028;5.670;2023-04-03T06:31:38;8.10;99.90
27559;DHT22;15002;52.028;5.670;2023-04-03T06:34:05;7.50;99.90
27559;DHT22;15002;52.028;5.670;2023-04-03T06:36:31;7.50;99.90
27559;DHT22;15002;52.028;5.670;2023-04-03T06:38:57;7.50;99.90
27559;DHT22;15002;52.028;5.670;2023-04-03T06:41:23;7.60;99.90
27559;DHT22;15002;52.028;5.670;2023-04-03T06:43:48;8.10;99.90
27559;DHT22;15002;52.028;5.670;2023-04-03T06:46:20;8.50;99.90
27559;DHT22;15002;52.028;5.670;2023-04-03T06:48:46;9.10;99.90
27559;DHT22;15002;52.028;5.670;2023-04-03T06:51:23;9.50;99.90
27559;DHT22;15002;52.028;5.670;2023-04-03T06:53:52;9.50;99.90
27559;DHT22;15002;52.028;5.670;2023-04-03T06:56:18;9.90;99.30
27559;DHT22;15002;52.028;5.670;2023-04-03T06:58:45;10.50;98.90
27559;DHT22;15002;52.028;5.670;2023-04-03T07:01:12;10.70;98.40
27559;DHT22;15002;52.028;5.670;2023-04-03T07:03:39;11.20;95.90
27559;DHT22;15002;52.028;5.670;2023-04-03T07:06:06;11.10;96.00
27559;DHT22;15002;52.028;5.670;2023-04-03T07:08:33;10.90;95.70
27559;DHT22;15002;52.028;5.670;2023-04-03T07:10:59;11.20;95.50
27559;DHT22;15002;52.028;5.670;2023-04-03T07:13:26;11.30;95.20
27559;DHT22;15002;52.028;5.670;2023-04-03T07:15:52;10.00;96.20
27559;DHT22;15002;52.028;5.670;2023-04-03T07:18:19;10.30;96.90
27559;DHT22;15002;52.028;5.670;2023-04-03T07:20:44;10.80;95.60
27559;DHT22;15002;52.028;5.670;2023-04-03T07:23:10;10.40;95.00
27559;DHT22;15002;52.028;5.670;2023-04-03T07:25:36;9.20;96.80
27559;DHT22;15002;52.028;5.670;2023-04-03T07:28:03;8.70;98.50
27559;DHT22;15002;52.028;5.670;2023-04-03T07:30:29;9.50;97.10
27559;DHT22;15002;52.028;5.670;2023-04-03T07:32:55;9.60;97.10
27559;DHT22;15002;52.028;5.670;2023-04-03T07:35:21;9.80;96.10
27559;DHT22;15002;52.028;5.670;2023-04-03T07:37:46;10.30;95.20
27559;DHT22;15002;52.028;5.670;2023-04-03T07:40:12;10.40;95.30
27559;DHT22;15002;52.028;5.670;2023-04-03T07:42:38;10.30;94.60
27559;DHT22;15002;52.028;5.670;2023-04-03T07:45:04;9.80;94.90
27559;DHT22;15002;52.028;5.670;2023-04-03T07:47:30;9.80;94.10
27559;DHT22;15002;52.028;5.670;2023-04-03T07:49:57;9.60;94.70
27559;DHT22;15002;52.028;5.670;2023-04-03T07:52:23;10.20;94.30
27559;DHT22;15002;52.028;5.670;2023-04-03T07:54:48;9.80;94.00
27559;DHT22;15002;52.028;5.670;2023-04-03T07:57:14;9.60;92.90
27559;DHT22;15002;52.028;5.670;2023-04-03T07:59:40;9.10;93.60
27559;DHT22;15002;52.028;5.670;2023-04-03T08:02:09;9.80;93.70
27559;DHT22;15002;52.028;5.670;2023-04-03T08:04:35;9.70;93.70
27559;DHT22;15002;52.028;5.670;2023-04-03T08:07:01;10.10;92.70
27559;DHT22;15002;52.028;5.670;2023-04-03T08:09:26;10.60;92.40
27559;DHT22;15002;52.028;5.670;2023-04-03T08:11:52;10.70;92.50
27559;DHT22;15002;52.028;5.670;2023-04-03T08:14:19;10.80;91.80
27559;DHT22;15002;52.028;5.670;2023-04-03T08:16:47;10.50;90.70
27559;DHT22;15002;52.028;5.670;2023-04-03T08:19:14;10.90;88.20
27559;DHT22;15002;52.028;5.670;2023-04-03T08:21:42;11.00;88.70
27559;DHT22;15002;52.028;5.670;2023-04-03T08:24:08;10.60;90.00
27559;DHT22;15002;52.028;5.670;2023-04-03T08:26:34;10.80;87.80
27559;DHT22;15002;52.028;5.670;2023-04-03T08:29:00;10.70;84.40
27559;DHT22;15002;52.028;5.670;2023-04-03T08:31:26;10.40;82.60
27559;DHT22;15002;52.028;5.670;2023-04-03T08:33:52;10.00;86.40
27559;DHT22;15002;52.028;5.670;2023-04-03T08:36:23;10.10;83.00
27559;DHT22;15002;52.028;5.670;2023-04-03T08:38:50;10.30;83.20
27559;DHT22;15002;52.028;5.670;2023-04-03T08:52:38;11.10;76.70
27559;DHT22;15002;52.028;5.670;2023-04-03T08:55:10;10.60;76.20
27559;DHT22;15002;52.028;5.670;2023-04-03T08:57:44;11.00;75.50
27559;DHT22;15002;52.028;5.670;2023-04-03T09:02:50;10.70;72.50
27559;DHT22;15002;52.028;5.670;2023-04-03T09:10:49;10.70;68.60
27559;DHT22;15002;52.028;5.670;2023-04-03T09:13:21;11.10;67.10
27559;DHT22;15002;52.028;5.670;2023-04-03T09:15:50;11.30;65.30
27559;DHT22;15002;52.028;5.670;2023-04-03T09:18:43;11.20;65.60
27559;DHT22;15002;52.028;5.670;2023-04-03T09:21:28;11.40;62.30
27559;DHT22;15002;52.028;5.670;2023-04-03T09:23:59;11.30;62.60
27559;DHT22;15002;52.028;5.670;2023-04-03T09:26:30;11.50;61.30
27559;DHT22;15002;52.028;5.670;2023-04-03T09:29:02;11.20;62.00
27559;DHT22;15002;52.028;5.670;2023-04-03T09:31:36;10.80;61.80
27559;DHT22;15002;52.028;5.670;2023-04-03T09:34:31;10.90;61.30
27559;DHT22;15002;52.028;5.670;2023-04-03T09:36:59;10.50;63.00
27559;DHT22;15002;52.028;5.670;2023-04-03T09:39:32;10.50;58.20
27559;DHT22;15002;52.028;5.670;2023-04-03T09:42:21;10.60;58.00
27559;DHT22;15002;52.028;5.670;2023-04-03T09:44:55;10.20;58.60
27559;DHT22;15002;52.028;5.670;2023-04-03T09:47:31;10.40;60.00
27559;DHT22;15002;52.028;5.670;2023-04-03T09:52:50;10.90;58.90
27559;DHT22;15002;52.028;5.670;2023-04-03T09:55:25;11.20;58.40
27559;DHT22;15002;52.028;5.670;2023-04-03T09:58:04;11.40;56.80
27559;DHT22;15002;52.028;5.670;2023-04-03T10:00:36;11.30;58.10
27559;DHT22;15002;52.028;5.670;2023-04-03T10:03:02;10.50;56.90
27559;DHT22;15002;52.028;5.670;2023-04-03T10:11:06;11.60;56.60
27559;DHT22;15002;52.028;5.670;2023-04-03T10:13:33;11.80;57.00
27559;DHT22;15002;52.028;5.670;2023-04-03T10:16:13;11.80;56.90
27559;DHT22;15002;52.028;5.670;2023-04-03T10:19:33;11.70;54.80
27559;DHT22;15002;52.028;5.670;2023-04-03T10:24:15;10.40;57.40
27559;DHT22;15002;52.028;5.670;2023-04-03T10:32:42;10.60;57.50
27559;DHT22;15002;52.028;5.670;2023-04-03T10:40:23;10.20;61.20
27559;DHT22;15002;52.028;5.670;2023-04-03T10:42:54;10.50;61.70
27559;DHT22;15002;52.028;5.670;2023-04-03T10:45:28;10.40;61.70
27559;DHT22;15002;52.028;5.670;2023-04-03T10:48:21;10.50;63.00
27559;DHT22;15002;52.028;5.670;2023-04-03T10:56:17;10.40;64.00
27559;DHT22;15002;52.028;5.670;2023-04-03T10:58:49;10.30;65.90
27559;DHT22;15002;52.028;5.670;2023-04-03T11:01:48;10.00;66.10
27559;DHT22;15002;52.028;5.670;2023-04-03T11:04:17;10.00;66.40
27559;DHT22;15002;52.028;5.670;2023-04-03T11:06:57;10.00;67.80
27559;DHT22;15002;52.028;5.670;2023-04-03T11:09:28;10.10;67.30
27559;DHT22;15002;52.028;5.670;2023-04-03T11:12:14;10.60;66.80
27559;DHT22;15002;52.028;5.670;2023-04-03T11:14:42;10.30;67.20
27559;DHT22;15002;52.028;5.670;2023-04-03T11:22:41;10.40;65.30
27559;DHT22;15002;52.028;5.670;2023-04-03T11:30:23;10.50;66.80
27559;DHT22;15002;52.028;5.670;2023-04-03T11:33:05;10.50;66.30
27559;DHT22;15002;52.028;5.670;2023-04-03T11:35:41;10.70;66.00
27559;DHT22;15002;52.028;5.670;2023-04-03T11:38:17;10.70;64.60
27559;DHT22;15002;52.028;5.670;2023-04-03T11:40:45;10.90;65.00
27559;DHT22;15002;52.028;5.670;2023-04-03T11:43:32;10.90;65.10
27559;DHT22;15002;52.028;5.670;2023-04-03T11:46:05;11.00;65.40
27559;DHT22;15002;52.028;5.670;2023-04-03T11:51:01;11.20;64.10
27559;DHT22;15002;52.028;5.670;2023-04-03T11:53:29;11.30;63.70
27559;DHT22;15002;52.028;5.670;2023-04-03T11:55:57;11.40;63.80
27559;DHT22;15002;52.028;5.670;2023-04-03T11:58:25;11.50;63.90
27559;DHT22;15002;52.028;5.670;2023-04-03T12:35:12;11.00;65.80
27559;DHT22;15002;52.028;5.670;2023-04-03T12:44:04;10.40;66.50
27559;DHT22;15002;52.028;5.670;2023-04-03T12:46:45;10.20;67.40
27559;DHT22;15002;52.028;5.670;2023-04-03T12:51:48;10.80;68.10
27559;DHT22;15002;52.028;5.670;2023-04-03T12:54:22;10.60;66.60
27559;DHT22;15002;52.028;5.670;2023-04-03T12:56:48;10.70;68.30
27559;DHT22;15002;52.028;5.670;2023-04-03T12:59:21;10.80;68.60
27559;DHT22;15002;52.028;5.670;2023-04-03T13:01:59;10.80;68.00
27559;DHT22;15002;52.028;5.670;2023-04-03T13:04:27;10.70;68.50
27559;DHT22;15002;52.028;5.670;2023-04-03T13:06:54;10.90;68.50
27559;DHT22;15002;52.028;5.670;2023-04-03T13:09:22;10.90;68.50
27559;DHT22;15002;52.028;5.670;2023-04-03T13:11:50;10.90;67.90
27559;DHT22;15002;52.028;5.670;2023-04-03T13:14:19;11.10;67.30
27559;DHT22;15002;52.028;5.670;2023-04-03T13:17:00;10.70;67.20
27559;DHT22;15002;52.028;5.670;2023-04-03T13:19:28;10.90;65.40
27559;DHT22;15002;52.028;5.670;2023-04-03T13:22:01;10.90;67.90
27559;DHT22;15002;52.028;5.670;2023-04-03T13:24:29;10.80;68.30
27559;DHT22;15002;52.028;5.670;2023-04-03T13:26:56;10.90;69.30
27559;DHT22;15002;52.028;5.670;2023-04-03T13:29:33;10.90;68.90
27559;DHT22;15002;52.028;5.670;2023-04-03T13:32:00;10.80;69.40
27559;DHT22;15002;52.028;5.670;2023-04-03T13:34:37;10.90;69.40
27559;DHT22;15002;52.028;5.670;2023-04-03T13:37:03;10.80;69.70
27559;DHT22;15002;52.028;5.670;2023-04-03T13:39:32;11.10;68.50
27559;DHT22;15002;52.028;5.670;2023-04-03T13:42:01;11.40;68.60
27559;DHT22;15002;52.028;5.670;2023-04-03T13:44:34;11.50;67.20
27559;DHT22;15002;52.028;5.670;2023-04-03T13:47:23;11.30;68.70
27559;DHT22;15002;52.028;5.670;2023-04-03T13:52:46;11.20;69.00
27559;DHT22;15002;52.028;5.670;2023-04-03T13:55:25;11.10;69.40
27559;DHT22;15002;52.028;5.670;2023-04-03T14:00:35;10.90;69.20
27559;DHT22;15002;52.028;5.670;2023-04-03T14:03:02;10.60;69.30
27559;DHT22;15002;52.028;5.670;2023-04-03T14:05:29;10.60;69.70
27559;DHT22;15002;52.028;5.670;2023-04-03T14:07:55;10.40;70.60
27559;DHT22;15002;52.028;5.670;2023-04-03T14:10:21;10.20;73.00
27559;DHT22;15002;52.028;5.670;2023-04-03T14:12:47;10.60;71.20
27559;DHT22;15002;52.028;5.670;2023-04-03T14:15:24;10.50;71.80
27559;DHT22;15002;52.028;5.670;2023-04-03T14:17:52;10.60;71.60
27559;DHT22;15002;52.028;5.670;2023-04-03T14:20:20;10.20;72.40
27559;DHT22;15002;52.028;5.670;2023-04-03T14:22:47;10.20;72.90
27559;DHT22;15002;52.028;5.670;2023-04-03T14:25:14;10.80;72.00
27559;DHT22;15002;52.028;5.670;2023-04-03T14:27:45;10.80;72.60
27559;DHT22;15002;52.028;5.670;2023-04-03T14:30:26;11.00;72.10
27559;DHT22;15002;52.028;5.670;2023-04-03T14:32:52;11.00;71.40
27559;DHT22;15002;52.028;5.670;2023-04-03T14:35:19;11.20;71.90
27559;DHT22;15002;52.028;5.670;2023-04-03T14:37:45;11.30;72.30
27559;DHT22;15002;52.028;5.670;2023-04-03T14:40:19;11.20;72.70
27559;DHT22;15002;52.028;5.670;2023-04-03T14:42:46;11.10;71.70
27559;DHT22;15002;52.028;5.670;2023-04-03T14:45:13;11.00;71.60
27559;DHT22;15002;52.028;5.670;2023-04-03T14:47:49;11.20;71.70
27559;DHT22;15002;52.028;5.670;2023-04-03T14:50:18;11.00;71.20
27559;DHT22;15002;52.028;5.670;2023-04-03T14:52:46;10.50;73.20
27559;DHT22;15002;52.028;5.670;2023-04-03T14:55:15;10.90;72.70
27559;DHT22;15002;52.028;5.670;2023-04-03T14:57:41;11.10;72.00
27559;DHT22;15002;52.028;5.670;2023-04-03T15:00:18;11.30;72.30
27559;DHT22;15002;52.028;5.670;2023-04-03T15:02:44;11.20;71.80
27559;DHT22;15002;52.028;5.670;2023-04-03T15:05:11;10.70;72.90
27559;DHT22;15002;52.028;5.670;2023-04-03T15:07:40;11.10;72.70
27559;DHT22;15002;52.028;5.670;2023-04-03T15:10:27;11.40;72.60
27559;DHT22;15002;52.028;5.670;2023-04-03T15:12:53;11.40;72.20
27559;DHT22;15002;52.028;5.670;2023-04-03T15:15:20;11.30;71.90
27559;DHT22;15002;52.028;5.670;2023-04-03T15:17:52;10.70;73.20
27559;DHT22;15002;52.028;5.670;2023-04-03T15:20:25;10.90;71.80
27559;DHT22;15002;52.028;5.670;2023-04-03T15:22:52;11.10;73.00
27559;DHT22;15002;52.028;5.670;2023-04-03T15:25:18;11.30;72.90
27559;DHT22;15002;52.028;5.670;2023-04-03T15:27:44;11.30;73.00
27559;DHT22;15002;52.028;5.670;2023-04-03T15:30:18;11.40;72.90
27559;DHT22;15002;52.028;5.670;2023-04-03T15:32:43;11.20;74.30
27559;DHT22;15002;52.028;5.670;2023-04-03T15:35:10;11.40;73.70
27559;DHT22;15002;52.028;5.670;2023-04-03T15:37:35;11.40;73.80
27559;DHT22;15002;52.028;5.670;2023-04-03T15:40:02;11.20;73.40
27559;DHT22;15002;52.028;5.670;2023-04-03T15:42:27;11.20;73.60
27559;DHT22;15002;52.028;5.670;2023-04-03T15:44:53;11.20;74.70
27559;DHT22;15002;52.028;5.670;2023-04-03T15:47:19;10.80;75.70
27559;DHT22;15002;52.028;5.670;2023-04-03T15:49:44;10.50;77.60
27559;DHT22;15002;52.028;5.670;2023-04-03T15:52:10;10.40;78.50
27559;DHT22;15002;52.028;5.670;2023-04-03T15:54:36;10.30;78.70
27559;DHT22;15002;52.028;5.670;2023-04-03T15:57:01;10.60;78.70
27559;DHT22;15002;52.028;5.670;2023-04-03T15:59:27;10.80;77.80
27559;DHT22;15002;52.028;5.670;2023-04-03T16:01:56;10.90;77.20
27559;DHT22;15002;52.028;5.670;2023-04-03T16:04:21;11.10;77.60
27559;DHT22;15002;52.028;5.670;2023-04-03T16:06:48;11.20;77.00
27559;DHT22;15002;52.028;5.670;2023-04-03T16:09:13;11.30;76.90
27559;DHT22;15002;52.028;5.670;2023-04-03T16:11:39;11.10;76.20
27559;DHT22;15002;52.028;5.670;2023-04-03T16:14:06;10.90;77.20
27559;DHT22;15002;52.028;5.670;2023-04-03T16:16:33;11.20;77.00
27559;DHT22;15002;52.028;5.670;2023-04-03T16:18:59;11.00;77.00
27559;DHT22;15002;52.028;5.670;2023-04-03T16:21:25;11.30;76.80
27559;DHT22;15002;52.028;5.670;2023-04-03T16:23:52;11.20;75.30
27559;DHT22;15002;52.028;5.670;2023-04-03T16:26:17;11.00;76.80
27559;DHT22;15002;52.028;5.670;2023-04-03T16:28:43;11.00;77.00
27559;DHT22;15002;52.028;5.670;2023-04-03T16:31:09;11.10;77.00
27559;DHT22;15002;52.028;5.670;2023-04-03T16:33:36;11.30;76.70
27559;DHT22;15002;52.028;5.670;2023-04-03T16:36:03;11.40;77.00
27559;DHT22;15002;52.028;5.670;2023-04-03T16:38:29;11.20;76.70
27559;DHT22;15002;52.028;5.670;2023-04-03T16:40:55;10.80;77.80
27559;DHT22;15002;52.028;5.670;2023-04-03T16:43:25;11.00;78.00
27559;DHT22;15002;52.028;5.670;2023-04-03T16:45:50;10.90;77.60
27559;DHT22;15002;52.028;5.670;2023-04-03T16:48:16;11.00;78.20
27559;DHT22;15002;52.028;5.670;2023-04-03T16:50:42;11.20;77.70
27559;DHT22;15002;52.028;5.670;2023-04-03T16:53:07;10.60;78.80
27559;DHT22;15002;52.028;5.670;2023-04-03T16:55:35;10.60;78.70
27559;DHT22;15002;52.028;5.670;2023-04-03T16:58:01;10.30;78.90
27559;DHT22;15002;52.028;5.670;2023-04-03T17:00:31;10.30;79.20
27559;DHT22;15002;52.028;5.670;2023-04-03T17:02:57;10.60;79.10
27559;DHT22;15002;52.028;5.670;2023-04-03T17:05:23;10.90;78.90
27559;DHT22;15002;52.028;5.670;2023-04-03T17:07:50;10.90;77.90
27559;DHT22;15002;52.028;5.670;2023-04-03T17:10:16;10.80;78.30
27559;DHT22;15002;52.028;5.670;2023-04-03T17:12:41;10.80;78.70
27559;DHT22;15002;52.028;5.670;2023-04-03T17:15:07;11.10;78.00
27559;DHT22;15002;52.028;5.670;2023-04-03T17:17:33;11.10;77.50
27559;DHT22;15002;52.028;5.670;2023-04-03T17:19:59;11.10;76.80
27559;DHT22;15002;52.028;5.670;2023-04-03T17:22:25;10.90;77.10
27559;DHT22;15002;52.028;5.670;2023-04-03T17:24:51;10.70;78.00
27559;DHT22;15002;52.028;5.670;2023-04-03T17:27:17;10.50;77.90
27559;DHT22;15002;52.028;5.670;2023-04-03T17:29:42;10.30;79.20
27559;DHT22;15002;52.028;5.670;2023-04-03T17:32:08;10.60;79.30
27559;DHT22;15002;52.028;5.670;2023-04-03T17:34:34;10.80;78.50
27559;DHT22;15002;52.028;5.670;2023-04-03T17:37:01;10.90;77.90
27559;DHT22;15002;52.028;5.670;2023-04-03T17:39:27;11.10;78.20
27559;DHT22;15002;52.028;5.670;2023-04-03T17:41:52;11.00;77.60